Time;durP1;ratioP1;P1;durP2;ratioP2;P2;SDS_P1;SDS_P2;PMS_P1;PMS_P2;Temp;Humidity;BMP_temperature;BMP_pressure;BME280_temperature;BME280_humidity;BME280_pressure;Samples;Min_cycle;Max_cycle;Signal;HPM_P1;HPM_P2
2021/11/18 00:00:58;;;;;;;12.27;9.15;;;6.50;99.90;;;;;;6222994;23;20280;-84
2021/11/18 00:03:26;;;;;;;9.27;8.48;;;6.50;99.90;;;;;;6223138;23;20178;-84
2021/11/18 00:05:54;;;;;;;11.18;10.18;;;6.50;99.90;;;;;;6223665;23;20180;-84
2021/11/18 00:08:21;;;;;;;9.10;8.20;;;6.50;99.90;;;;;;6220204;23;20178;-85
2021/11/18 00:10:51;;;;;;;8.60;7.78;;;6.60;99.90;;;;;;6219704;23;20197;-85
2021/11/18 00:13:21;;;;;;;9.10;7.95;;;6.60;99.90;;;;;;6219820;23;20182;-85
2021/11/18 00:15:49;;;;;;;10.73;8.70;;;6.60;99.90;;;;;;6219572;23;20264;-85
2021/11/18 00:18:18;;;;;;;9.27;8.40;;;6.70;99.90;;;;;;6219098;23;20182;-85
2021/11/18 00:20:48;;;;;;;8.13;7.43;;;6.80;99.90;;;;;;6219688;23;20201;-85
2021/11/18 00:23:18;;;;;;;8.85;7.95;;;6.80;99.90;;;;;;6219475;23;20236;-85
2021/11/18 00:25:45;;;;;;;9.15;8.25;;;6.60;99.90;;;;;;6219676;23;20200;-85
2021/11/18 00:28:13;;;;;;;8.90;7.68;;;6.80;99.90;;;;;;6219037;23;20189;-84
2021/11/18 00:30:40;;;;;;;9.00;8.02;;;6.70;99.90;;;;;;6220022;23;20255;-85
2021/11/18 00:33:08;;;;;;;9.75;7.43;;;6.70;99.90;;;;;;6223960;23;20648;-85
2021/11/18 00:35:36;;;;;;;8.55;7.75;;;6.70;99.90;;;;;;6220969;23;20224;-85
2021/11/18 00:38:04;;;;;;;11.18;9.00;;;6.60;99.90;;;;;;6220154;23;20182;-85
2021/11/18 00:40:34;;;;;;;9.82;8.73;;;6.70;99.90;;;;;;6219461;23;20203;-84
2021/11/18 00:43:01;;;;;;;9.45;8.55;;;6.70;99.90;;;;;;6219020;23;20169;-84
2021/11/18 00:45:28;;;;;;;9.45;7.68;;;6.70;99.90;;;;;;6218693;23;20181;-85
2021/11/18 00:47:56;;;;;;;8.23;7.40;;;6.70;99.90;;;;;;6218848;23;20192;-85
2021/11/18 00:50:25;;;;;;;8.52;7.78;;;6.80;99.90;;;;;;6222544;23;20208;-85
2021/11/18 00:52:52;;;;;;;7.97;7.25;;;6.90;99.90;;;;;;6222587;23;20182;-84
2021/11/18 00:55:19;;;;;;;8.30;7.60;;;6.90;99.90;;;;;;6222625;23;20204;-85
2021/11/18 00:57:48;;;;;;;8.70;7.80;;;6.90;99.90;;;;;;6221988;23;20642;-85
2021/11/18 01:00:19;;;;;;;7.90;7.10;;;6.90;99.90;;;;;;6222378;23;20202;-85
2021/11/18 01:02:47;;;;;;;9.35;7.88;;;6.70;99.90;;;;;;6221841;23;20154;-84
2021/11/18 01:05:14;;;;;;;8.68;7.60;;;6.80;99.90;;;;;;6221711;23;20184;-84
2021/11/18 01:07:41;;;;;;;8.60;7.70;;;6.80;99.90;;;;;;6222484;23;20180;-85
2021/11/18 01:10:11;;;;;;;8.57;7.85;;;6.80;99.90;;;;;;6222484;23;20221;-86
2021/11/18 01:12:39;;;;;;;8.23;7.47;;;6.80;99.90;;;;;;6223062;23;20184;-84
2021/11/18 01:15:09;;;;;;;9.32;8.52;;;6.80;99.90;;;;;;6222072;23;20178;-86
2021/11/18 01:17:36;;;;;;;8.48;7.68;;;6.80;99.90;;;;;;6222008;23;20531;-86
2021/11/18 01:20:04;;;;;;;6.90;6.30;;;6.90;99.90;;;;;;6220943;23;20209;-87
2021/11/18 01:22:31;;;;;;;10.13;8.35;;;6.90;99.90;;;;;;6226900;23;20184;-87
2021/11/18 01:24:58;;;;;;;8.15;7.50;;;7.00;99.90;;;;;;6223382;23;20181;-87
2021/11/18 01:27:25;;;;;;;7.72;7.00;;;7.00;99.90;;;;;;6223317;23;20703;-86
2021/11/18 01:29:52;;;;;;;8.60;7.70;;;7.00;99.90;;;;;;6222547;23;20703;-87
2021/11/18 01:32:21;;;;;;;9.18;7.60;;;7.00;99.90;;;;;;6222892;23;20184;-87
2021/11/18 01:34:48;;;;;;;8.52;7.72;;;6.90;99.90;;;;;;6222325;23;20509;-87
2021/11/18 01:37:14;;;;;;;9.02;8.05;;;6.90;99.90;;;;;;6222523;23;20211;-87
2021/11/18 01:39:41;;;;;;;10.07;7.35;;;6.90;99.90;;;;;;6222433;23;20198;-87
2021/11/18 01:42:08;;;;;;;7.70;7.00;;;6.90;99.90;;;;;;6221978;23;20501;-86
2021/11/18 01:44:38;;;;;;;8.48;6.78;;;7.00;99.90;;;;;;6222033;23;20543;-86
2021/11/18 01:47:05;;;;;;;8.43;6.53;;;7.10;99.90;;;;;;6222945;23;20181;-87
2021/11/18 01:49:33;;;;;;;7.50;6.80;;;7.20;99.90;;;;;;6221858;23;20185;-87
2021/11/18 01:52:04;;;;;;;9.02;7.82;;;7.20;99.90;;;;;;6221430;23;20183;-87
2021/11/18 01:54:33;;;;;;;7.45;6.45;;;7.20;99.90;;;;;;6222558;23;20246;-87
2021/11/18 01:57:00;;;;;;;8.75;7.85;;;7.20;99.90;;;;;;6219296;23;20205;-86
2021/11/18 01:59:30;;;;;;;6.85;6.22;;;7.20;99.90;;;;;;6217699;23;20181;-86
2021/11/18 02:01:58;;;;;;;8.15;6.80;;;7.20;99.90;;;;;;6217552;23;20178;-86
2021/11/18 02:04:27;;;;;;;9.07;7.43;;;7.30;99.90;;;;;;6217454;23;20178;-86
2021/11/18 02:06:58;;;;;;;8.38;6.55;;;7.30;99.90;;;;;;6217909;23;20178;-86
2021/11/18 02:09:28;;;;;;;8.05;7.05;;;7.30;99.90;;;;;;6217862;23;20166;-87
2021/11/18 02:11:58;;;;;;;9.18;7.78;;;7.10;99.90;;;;;;6217410;23;20172;-85
2021/11/18 02:14:26;;;;;;;8.05;7.35;;;7.10;99.90;;;;;;6219222;23;20204;-86
2021/11/18 02:16:56;;;;;;;8.65;7.95;;;7.10;99.90;;;;;;6220424;23;20760;-86
2021/11/18 02:19:24;;;;;;;9.13;8.25;;;7.00;99.90;;;;;;6222493;23;20224;-86
2021/11/18 02:21:54;;;;;;;7.10;6.50;;;7.10;99.90;;;;;;6222004;23;20170;-86
2021/11/18 02:24:25;;;;;;;7.45;6.88;;;7.10;99.90;;;;;;6222655;23;20181;-86
2021/11/18 02:26:52;;;;;;;7.53;6.93;;;7.10;99.90;;;;;;6223228;23;20165;-87
2021/11/18 02:29:21;;;;;;;7.85;6.93;;;7.00;99.90;;;;;;6222585;23;20184;-86
2021/11/18 02:31:51;;;;;;;7.35;6.57;;;7.00;99.90;;;;;;6223322;23;20630;-85
2021/11/18 02:34:21;;;;;;;8.20;7.38;;;6.90;99.90;;;;;;6222312;23;20181;-87
2021/11/18 02:36:48;;;;;;;8.18;7.43;;;7.00;99.90;;;;;;6221656;23;20193;-86
2021/11/18 02:39:17;;;;;;;10.07;7.65;;;6.90;99.90;;;;;;6222023;23;20186;-86
2021/11/18 02:41:44;;;;;;;8.48;7.47;;;6.90;99.90;;;;;;6221633;23;20181;-85
2021/11/18 02:44:11;;;;;;;7.95;7.15;;;7.00;99.90;;;;;;6221196;23;20184;-87
2021/11/18 02:46:38;;;;;;;7.55;6.95;;;7.00;99.90;;;;;;6222397;23;20181;-86
2021/11/18 02:49:06;;;;;;;7.35;6.75;;;7.00;99.90;;;;;;6221766;23;20182;-86
2021/11/18 02:51:33;;;;;;;9.95;7.70;;;7.00;99.90;;;;;;6221387;23;20209;-85
2021/11/18 02:54:02;;;;;;;7.35;6.55;;;7.10;99.90;;;;;;6222102;23;20511;-87
2021/11/18 02:56:32;;;;;;;8.55;7.43;;;7.20;99.90;;;;;;6220159;23;20512;-86
2021/11/18 02:59:00;;;;;;;9.38;7.60;;;7.20;99.90;;;;;;6218812;23;20169;-84
2021/11/18 03:01:30;;;;;;;7.70;7.03;;;7.30;99.90;;;;;;6218380;23;20202;-87
2021/11/18 03:03:57;;;;;;;8.55;7.75;;;7.20;99.90;;;;;;6218525;23;20185;-86
2021/11/18 03:06:23;;;;;;;9.05;8.25;;;7.30;99.90;;;;;;6218852;23;20184;-86
2021/11/18 03:08:50;;;;;;;9.73;8.82;;;7.00;99.90;;;;;;6218679;23;20180;-86
2021/11/18 03:11:18;;;;;;;9.85;8.95;;;7.20;99.90;;;;;;6218326;23;20201;-85
2021/11/18 03:13:47;;;;;;;8.95;8.05;;;7.20;99.90;;;;;;6218181;23;20189;-85
2021/11/18 03:16:15;;;;;;;9.18;7.95;;;7.30;99.90;;;;;;6218625;23;20292;-87
2021/11/18 03:18:42;;;;;;;9.60;8.45;;;7.40;99.90;;;;;;6240597;22;20180;-85
2021/11/18 03:21:14;;;;;;;9.77;8.40;;;7.40;99.90;;;;;;6243828;22;20197;-84
2021/11/18 03:23:41;;;;;;;10.25;9.02;;;7.40;99.90;;;;;;6219012;23;20166;-87
2021/11/18 03:26:10;;;;;;;10.38;9.27;;;7.50;99.90;;;;;;6219379;23;20180;-86
2021/11/18 03:28:36;;;;;;;9.30;8.40;;;7.50;99.90;;;;;;6218579;23;20190;-86
2021/11/18 03:31:07;;;;;;;13.63;9.35;;;7.50;99.90;;;;;;6219186;23;20198;-87
2021/11/18 03:33:36;;;;;;;11.82;10.65;;;7.50;99.90;;;;;;6219376;23;20172;-86
2021/11/18 03:36:05;;;;;;;14.80;9.60;;;7.60;99.90;;;;;;6218555;23;20668;-87
2021/11/18 03:38:34;;;;;;;10.82;9.05;;;7.60;99.90;;;;;;6218970;23;20184;-86
2021/11/18 03:41:03;;;;;;;11.68;10.68;;;7.60;99.90;;;;;;6219413;23;20201;-86
2021/11/18 03:43:33;;;;;;;13.73;11.48;;;7.60;99.90;;;;;;6219534;23;20209;-86
2021/11/18 03:46:00;;;;;;;14.68;11.25;;;7.60;99.90;;;;;;6219345;23;20174;-87
2021/11/18 03:48:29;;;;;;;10.93;9.80;;;7.60;99.90;;;;;;6218847;23;20185;-86
2021/11/18 03:50:57;;;;;;;11.73;10.52;;;7.60;99.90;;;;;;6218913;23;20252;-86
2021/11/18 03:53:25;;;;;;;15.50;10.48;;;7.50;99.90;;;;;;6218319;23;20177;-86
2021/11/18 03:55:51;;;;;;;13.48;12.07;;;7.40;99.90;;;;;;6218791;23;20261;-86
2021/11/18 03:58:18;;;;;;;13.73;11.95;;;7.30;99.90;;;;;;6218427;23;20526;-85
2021/11/18 04:00:45;;;;;;;10.80;9.80;;;7.40;99.90;;;;;;6218435;23;20348;-86
2021/11/18 04:03:14;;;;;;;13.73;11.98;;;7.40;99.90;;;;;;6217824;23;20190;-86
2021/11/18 04:05:43;;;;;;;12.55;11.25;;;7.40;99.90;;;;;;6218426;23;20177;-85
2021/11/18 04:08:11;;;;;;;13.07;11.65;;;7.40;99.90;;;;;;6217214;23;20178;-86
2021/11/18 04:10:39;;;;;;;12.52;11.23;;;7.40;99.90;;;;;;6218255;23;20525;-85
2021/11/18 04:13:07;;;;;;;15.63;13.45;;;7.40;99.90;;;;;;6218413;23;20182;-86
2021/11/18 04:15:34;;;;;;;14.00;11.85;;;7.40;99.90;;;;;;6218519;23;20188;-86
2021/11/18 04:18:02;;;;;;;13.70;11.95;;;7.40;99.90;;;;;;6218418;23;20533;-85
2021/11/18 04:20:29;;;;;;;15.05;13.55;;;7.40;99.90;;;;;;6218201;23;20197;-86
2021/11/18 04:22:58;;;;;;;14.05;11.82;;;7.30;99.90;;;;;;6218395;23;20181;-86
2021/11/18 04:25:28;;;;;;;14.50;12.18;;;7.30;99.90;;;;;;6218645;23;20178;-85
2021/11/18 04:27:56;;;;;;;14.13;12.20;;;7.30;99.90;;;;;;6218715;23;20190;-86
2021/11/18 04:30:28;;;;;;;13.32;11.85;;;7.30;99.90;;;;;;6218065;23;20202;-87
2021/11/18 04:32:54;;;;;;;12.80;10.68;;;7.40;99.90;;;;;;6217999;23;20162;-86
2021/11/18 04:35:22;;;;;;;16.48;12.52;;;7.40;99.90;;;;;;6217706;23;20189;-87
2021/11/18 04:37:49;;;;;;;14.80;13.10;;;7.40;99.90;;;;;;6217697;23;20217;-87
2021/11/18 04:40:18;;;;;;;13.57;12.18;;;7.50;99.90;;;;;;6217895;23;20223;-86
2021/11/18 04:42:46;;;;;;;15.90;13.30;;;7.50;99.90;;;;;;6218045;23;20458;-87
2021/11/18 04:45:15;;;;;;;14.43;11.57;;;7.50;99.90;;;;;;6219765;23;20181;-86
2021/11/18 04:47:42;;;;;;;14.55;11.32;;;7.60;99.90;;;;;;6220572;23;20174;-86
2021/11/18 04:50:10;;;;;;;11.85;10.50;;;7.60;99.90;;;;;;6219865;23;20201;-86
2021/11/18 04:52:37;;;;;;;12.63;10.40;;;7.60;99.90;;;;;;6218876;23;20186;-86
2021/11/18 04:55:05;;;;;;;15.13;10.75;;;7.50;99.90;;;;;;6219676;23;20182;-86
2021/11/18 04:57:33;;;;;;;12.07;10.95;;;7.50;99.90;;;;;;6219748;23;20198;-86
2021/11/18 05:00:00;;;;;;;11.60;9.80;;;7.60;99.90;;;;;;6219842;23;20201;-86
2021/11/18 05:02:27;;;;;;;11.95;10.73;;;7.60;99.90;;;;;;6219640;23;20182;-86
2021/11/18 05:04:54;;;;;;;10.65;9.35;;;7.60;99.90;;;;;;6220213;23;20182;-86
2021/11/18 05:07:21;;;;;;;15.20;11.65;;;7.60;99.90;;;;;;6219789;23;20174;-86
2021/11/18 05:09:48;;;;;;;13.90;10.05;;;7.70;99.90;;;;;;6221415;23;20202;-87
2021/11/18 05:12:17;;;;;;;11.32;9.77;;;7.70;99.90;;;;;;6219917;23;20204;-86
2021/11/18 05:14:45;;;;;;;10.82;8.77;;;7.60;99.90;;;;;;6220343;23;20277;-85
2021/11/18 05:17:12;;;;;;;10.60;9.60;;;7.70;99.90;;;;;;6220926;23;20213;-87
2021/11/18 05:19:39;;;;;;;11.30;9.68;;;7.70;99.90;;;;;;6220718;23;20284;-86
2021/11/18 05:22:06;;;;;;;11.77;10.60;;;7.70;99.90;;;;;;6219959;23;20177;-86
2021/11/18 05:24:33;;;;;;;11.52;9.43;;;7.80;99.90;;;;;;6219337;23;20184;-86
2021/11/18 05:27:00;;;;;;;10.93;9.70;;;7.80;99.90;;;;;;6218834;23;20181;-86
2021/11/18 05:29:27;;;;;;;10.82;9.73;;;7.80;99.90;;;;;;6216771;23;20185;-86
2021/11/18 05:31:55;;;;;;;14.15;10.23;;;7.80;99.90;;;;;;6217243;23;20174;-86
2021/11/18 05:34:22;;;;;;;10.48;9.38;;;7.80;99.90;;;;;;6217447;23;20740;-87
2021/11/18 05:36:49;;;;;;;9.45;8.65;;;7.90;99.90;;;;;;6216676;23;20529;-87
2021/11/18 05:39:16;;;;;;;12.50;9.95;;;7.90;99.90;;;;;;6217078;23;20185;-86
2021/11/18 05:41:43;;;;;;;10.93;9.23;;;7.90;99.90;;;;;;6217055;23;20181;-85
2021/11/18 05:44:10;;;;;;;10.98;9.68;;;7.90;99.90;;;;;;6216977;23;20188;-86
2021/11/18 05:46:38;;;;;;;10.82;9.73;;;8.00;99.90;;;;;;6217436;23;20173;-86
2021/11/18 05:49:07;;;;;;;14.05;8.88;;;8.00;99.90;;;;;;6217552;23;20188;-86
2021/11/18 05:51:36;;;;;;;11.70;9.90;;;8.00;99.90;;;;;;6219417;23;20198;-86
2021/11/18 05:54:03;;;;;;;9.93;8.90;;;7.90;99.90;;;;;;6221617;23;20185;-85
2021/11/18 05:56:30;;;;;;;13.63;8.25;;;7.80;99.90;;;;;;6221212;23;20178;-86
2021/11/18 05:58:57;;;;;;;11.82;9.95;;;7.80;99.90;;;;;;6221074;23;20182;-85
2021/11/18 06:01:28;;;;;;;12.18;10.98;;;7.80;99.90;;;;;;6220918;23;20276;-85
2021/11/18 06:03:55;;;;;;;12.50;10.43;;;7.80;99.90;;;;;;6221357;23;20241;-84
2021/11/18 06:06:24;;;;;;;11.18;8.82;;;7.80;99.90;;;;;;6220528;23;20685;-85
2021/11/18 06:08:51;;;;;;;9.70;8.75;;;7.80;99.90;;;;;;6219219;23;20671;-86
2021/11/18 06:11:19;;;;;;;11.50;9.80;;;7.80;99.90;;;;;;6219157;23;20596;-86
2021/11/18 06:13:49;;;;;;;11.70;9.25;;;7.80;99.90;;;;;;6218915;23;20664;-86
2021/11/18 06:16:17;;;;;;;10.32;9.23;;;7.90;99.90;;;;;;6219283;23;20166;-85
2021/11/18 06:18:44;;;;;;;11.82;9.88;;;7.90;99.90;;;;;;6218641;23;20532;-85
2021/11/18 06:21:11;;;;;;;10.25;9.23;;;8.00;99.90;;;;;;6227813;23;20204;-86
2021/11/18 06:23:39;;;;;;;12.38;9.30;;;8.00;99.90;;;;;;6222435;23;20188;-86
2021/11/18 06:26:06;;;;;;;10.43;9.23;;;8.00;99.90;;;;;;6222229;23;20178;-85
2021/11/18 06:28:33;;;;;;;13.00;11.52;;;8.00;99.90;;;;;;6222631;23;20188;-86
2021/11/18 06:31:05;;;;;;;13.93;11.63;;;8.00;99.90;;;;;;6222112;23;20204;-86
2021/11/18 06:33:32;;;;;;;12.45;11.07;;;8.00;99.90;;;;;;6222720;23;20224;-87
2021/11/18 06:35:59;;;;;;;13.45;10.00;;;8.00;99.90;;;;;;6222297;23;20170;-84
2021/11/18 06:38:27;;;;;;;14.70;10.63;;;8.00;99.90;;;;;;6222024;23;20197;-86
2021/11/18 06:40:55;;;;;;;12.35;11.10;;;7.90;99.90;;;;;;6220030;23;20219;-86
2021/11/18 06:43:23;;;;;;;16.75;10.43;;;7.90;99.90;;;;;;6223107;23;20188;-85
2021/11/18 06:45:53;;;;;;;11.73;9.90;;;7.90;99.90;;;;;;6223814;23;20178;-85
2021/11/18 06:48:22;;;;;;;10.63;9.00;;;7.90;99.90;;;;;;6224903;23;20519;-85
2021/11/18 06:50:50;;;;;;;11.65;9.48;;;7.90;99.90;;;;;;6223209;23;20202;-86
2021/11/18 06:53:18;;;;;;;21.15;11.57;;;7.90;99.90;;;;;;6223484;23;20546;-85
2021/11/18 06:55:45;;;;;;;11.13;8.70;;;7.90;99.90;;;;;;6224252;23;20173;-85
2021/11/18 06:58:16;;;;;;;14.65;9.73;;;7.90;99.90;;;;;;6223792;23;20248;-85
2021/11/18 07:00:45;;;;;;;10.80;9.80;;;7.90;99.90;;;;;;6223261;23;20281;-83
2021/11/18 07:03:58;;;;;;;11.95;10.18;;;7.80;99.90;;;;;;6223170;23;20201;-86
2021/11/18 07:06:29;;;;;;;11.73;9.10;;;7.70;99.90;;;;;;6223366;23;20178;-84
2021/11/18 07:08:56;;;;;;;13.60;9.85;;;7.60;99.90;;;;;;6225966;23;20197;-84
2021/11/18 07:11:25;;;;;;;14.95;11.68;;;7.60;99.90;;;;;;6233765;23;20193;-85
2021/11/18 07:13:55;;;;;;;13.57;10.02;;;7.50;99.90;;;;;;6228556;23;20208;-84
2021/11/18 07:16:24;;;;;;;17.10;10.38;;;7.40;99.90;;;;;;6227185;23;20267;-85
2021/11/18 07:18:58;;;;;;;16.60;10.50;;;7.50;99.90;;;;;;6222641;23;20208;-86
2021/11/18 07:21:26;;;;;;;11.93;10.18;;;7.60;99.90;;;;;;6223783;23;20272;-86
2021/11/18 07:23:58;;;;;;;15.48;12.30;;;7.50;99.90;;;;;;6223664;23;20205;-87
2021/11/18 07:26:25;;;;;;;18.98;11.68;;;7.40;99.90;;;;;;6225686;23;20178;-86
2021/11/18 07:28:55;;;;;;;15.10;11.10;;;7.30;99.90;;;;;;6227609;23;20178;-85
2021/11/18 07:31:24;;;;;;;14.02;10.90;;;7.40;99.90;;;;;;6227366;23;20229;-84
2021/11/18 07:33:51;;;;;;;14.82;10.70;;;7.60;99.90;;;;;;6225076;23;20580;-86
2021/11/18 07:36:18;;;;;;;22.13;13.15;;;7.60;99.90;;;;;;6224596;23;20188;-86
2021/11/18 07:38:45;;;;;;;17.73;12.50;;;7.70;99.90;;;;;;6225608;23;20194;-87
2021/11/18 07:41:12;;;;;;;18.90;12.40;;;7.70;99.90;;;;;;6225442;23;20204;-86
2021/11/18 07:43:42;;;;;;;18.17;15.13;;;7.70;99.90;;;;;;6226128;23;20668;-87
2021/11/18 07:46:13;;;;;;;14.82;12.63;;;7.80;99.90;;;;;;6227082;23;20733;-86
2021/11/18 07:48:40;;;;;;;19.05;14.80;;;7.60;99.90;;;;;;6225971;23;20162;-87
2021/11/18 07:51:08;;;;;;;15.55;12.35;;;7.40;99.90;;;;;;6226960;23;20194;-87
2021/11/18 07:53:39;;;;;;;18.60;13.70;;;7.20;99.90;;;;;;6224787;23;20197;-86
2021/11/18 08:42:24;;;;;;;24.75;16.08;;;8.00;99.90;;;;;;6216309;22;20209;-83
2021/11/18 08:45:59;;;;;;;23.38;15.77;;;8.00;99.90;;;;;;6224672;23;20557;-84
2021/11/18 08:48:25;;;;;;;26.15;16.20;;;8.10;99.90;;;;;;6226992;23;20214;-83
2021/11/18 08:50:54;;;;;;;26.60;16.63;;;8.20;99.90;;;;;;6224687;23;20200;-83
2021/11/18 08:53:25;;;;;;;27.42;18.13;;;8.20;99.90;;;;;;6226590;23;20208;-83
2021/11/18 08:55:52;;;;;;;25.90;15.93;;;8.40;99.90;;;;;;6223707;23;20166;-84
2021/11/18 08:58:36;;;;;;;24.33;16.00;;;8.50;99.90;;;;;;6224920;23;20208;-83
2021/11/18 09:01:07;;;;;;;27.98;17.48;;;8.70;99.90;;;;;;6223529;23;20202;-83
2021/11/18 09:03:34;;;;;;;23.73;16.58;;;8.80;99.90;;;;;;6223590;23;20172;-84
2021/11/18 09:06:04;;;;;;;26.00;16.42;;;8.90;99.90;;;;;;6225538;23;20179;-83
2021/11/18 09:08:32;;;;;;;22.90;14.68;;;8.90;99.90;;;;;;6226990;23;20166;-83
2021/11/18 09:11:00;;;;;;;24.80;15.27;;;8.80;99.90;;;;;;6227034;23;20201;-84
2021/11/18 09:13:29;;;;;;;22.80;14.13;;;8.80;99.90;;;;;;6224978;23;20509;-83
2021/11/18 09:15:56;;;;;;;23.38;16.10;;;8.90;99.90;;;;;;6226244;23;20189;-83
2021/11/18 09:18:23;;;;;;;21.88;16.02;;;8.90;99.90;;;;;;6226581;23;20498;-82
2021/11/18 09:20:54;;;;;;;21.55;14.82;;;9.00;99.90;;;;;;6226012;23;20202;-82
2021/11/18 09:23:39;;;;;;;19.85;12.68;;;9.10;99.90;;;;;;6221498;23;20154;-81
2021/11/18 09:26:07;;;;;;;19.90;12.02;;;9.20;99.90;;;;;;6224362;23;20162;-83
2021/11/18 09:32:28;;;;;;;18.17;12.57;;;9.30;99.90;;;;;;6198611;23;20203;-84
2021/11/18 09:34:57;;;;;;;18.42;13.10;;;9.40;99.90;;;;;;6217967;23;20182;-84
2021/11/18 09:37:24;;;;;;;20.50;13.80;;;9.50;99.90;;;;;;6223646;23;20167;-84
2021/11/18 09:43:54;;;;;;;20.08;13.65;;;9.60;99.90;;;;;;6224203;23;20185;-83
2021/11/18 09:47:27;;;;;;;20.25;13.30;;;9.50;99.90;;;;;;6165405;23;20262;-83
2021/11/18 09:50:21;;;;;;;20.20;14.27;;;9.40;99.90;;;;;;6221487;23;20257;-82
2021/11/18 09:59:31;;;;;;;18.88;12.75;;;9.70;99.90;;;;;;6171907;23;20264;-82
2021/11/18 10:02:32;;;;;;;19.38;14.00;;;9.70;99.90;;;;;;6224408;23;20252;-81
2021/11/18 10:05:01;;;;;;;15.02;11.50;;;9.90;99.90;;;;;;6225212;23;20167;-81
2021/11/18 10:07:40;;;;;;;14.73;10.95;;;10.00;99.90;;;;;;6224801;23;20190;-81
2021/11/18 10:10:24;;;;;;;14.63;10.07;;;10.20;99.90;;;;;;6224322;23;20170;-81
2021/11/18 10:13:01;;;;;;;11.75;10.25;;;10.40;99.90;;;;;;6224536;23;20167;-81
2021/11/18 10:15:31;;;;;;;9.87;8.63;;;10.50;99.90;;;;;;6224042;23;20167;-82
2021/11/18 10:18:01;;;;;;;9.75;8.18;;;10.50;99.90;;;;;;6225619;23;20430;-82
2021/11/18 10:20:30;;;;;;;8.93;8.02;;;10.60;99.90;;;;;;6225749;23;20198;-82
2021/11/18 10:23:04;;;;;;;10.33;7.87;;;10.60;99.90;;;;;;6224047;23;20190;-82
2021/11/18 10:25:36;;;;;;;12.23;7.85;;;10.70;99.90;;;;;;6224219;23;20526;-80
2021/11/18 10:28:37;;;;;;;10.20;7.93;;;10.80;99.90;;;;;;6224622;23;20175;-82
2021/11/18 10:31:19;;;;;;;11.47;8.03;;;11.00;99.90;;;;;;6229737;23;20207;-81
2021/11/18 10:33:55;;;;;;;9.43;7.83;;;11.20;99.90;;;;;;6229658;23;20419;-82
2021/11/18 10:36:43;;;;;;;11.33;8.80;;;11.50;99.90;;;;;;6234508;23;20400;-81
2021/11/18 10:39:22;;;;;;;9.30;8.30;;;11.70;99.90;;;;;;6233230;23;20439;-82
2021/11/18 10:41:54;;;;;;;8.43;7.63;;;11.90;99.90;;;;;;6231531;23;20436;-80
2021/11/18 10:44:24;;;;;;;9.07;7.70;;;12.10;99.90;;;;;;6230442;23;20408;-81
2021/11/18 10:47:08;;;;;;;9.90;7.97;;;12.20;99.90;;;;;;6228021;23;21135;-81
2021/11/18 10:49:42;;;;;;;9.13;7.63;;;12.00;99.90;;;;;;6226554;23;20422;-81
2021/11/18 10:52:20;;;;;;;8.43;7.50;;;12.00;99.90;;;;;;6226461;23;20435;-82
2021/11/18 10:54:50;;;;;;;8.77;7.87;;;12.00;99.90;;;;;;6227198;23;20424;-82
2021/11/18 10:57:21;;;;;;;8.27;7.23;;;11.90;99.90;;;;;;6226111;23;20397;-82
2021/11/18 10:59:50;;;;;;;7.03;6.33;;;11.90;99.90;;;;;;6227181;23;20455;-81
2021/11/18 11:02:24;;;;;;;6.70;5.83;;;11.70;99.90;;;;;;6226135;23;20438;-82
2021/11/18 11:08:51;;;;;;;4.80;4.40;;;11.60;99.90;;;;;;6220377;23;20445;-83
2021/11/18 11:12:02;;;;;;;7.10;5.63;;;11.40;99.90;;;;;;6223898;23;20934;-82
2021/11/18 11:18:22;;;;;;;5.20;4.70;;;11.20;99.90;;;;;;6211976;23;20252;-80
2021/11/18 11:21:02;;;;;;;5.30;4.72;;;11.40;99.90;;;;;;6223191;23;20431;-81
2021/11/18 11:23:38;;;;;;;4.50;4.13;;;11.60;99.90;;;;;;6224669;23;20172;-81
2021/11/18 11:26:41;;;;;;;4.63;4.13;;;11.90;99.90;;;;;;6223291;23;20785;-82
2021/11/18 11:29:26;;;;;;;4.23;3.80;;;12.10;99.90;;;;;;6226880;23;20406;-83
2021/11/18 11:32:03;;;;;;;4.60;4.20;;;12.00;99.90;;;;;;6221572;23;20459;-82
2021/11/18 11:34:44;;;;;;;4.30;3.78;;;12.00;99.90;;;;;;6223685;23;20398;-83
2021/11/18 11:37:29;;;;;;;4.07;3.60;;;11.90;99.90;;;;;;6226445;23;20167;-82
2021/11/18 11:39:59;;;;;;;4.63;4.23;;;11.80;99.90;;;;;;6224878;23;20436;-83
2021/11/18 11:42:50;;;;;;;5.13;4.27;;;11.90;99.90;;;;;;6221891;23;20502;-82
2021/11/18 11:45:20;;;;;;;6.82;6.13;;;11.90;99.90;;;;;;6226378;23;20414;-84
2021/11/18 11:48:13;;;;;;;6.63;5.53;;;11.90;99.90;;;;;;6233171;23;20201;-82
2021/11/18 11:51:26;;;;;;;6.10;5.40;;;11.80;99.90;;;;;;6232613;23;20507;-84
2021/11/18 11:54:10;;;;;;;7.93;6.70;;;11.70;99.90;;;;;;6227879;23;20404;-82
2021/11/18 11:56:39;;;;;;;10.43;7.17;;;11.60;99.90;;;;;;6233073;23;20169;-81
2021/11/18 11:59:13;;;;;;;8.13;7.38;;;11.60;99.90;;;;;;6240733;23;20427;-81
2021/11/18 12:01:47;;;;;;;8.68;6.18;;;11.40;99.90;;;;;;6240028;23;20254;-81
2021/11/18 12:04:22;;;;;;;8.17;6.13;;;11.30;99.90;;;;;;6239701;22;20171;-84
2021/11/18 12:06:56;;;;;;;9.00;7.95;;;11.40;99.90;;;;;;6226136;23;20400;-82
2021/11/18 12:09:33;;;;;;;7.50;6.32;;;11.30;99.90;;;;;;6235032;23;20476;-83
2021/11/18 12:12:05;;;;;;;7.50;6.20;;;11.30;99.90;;;;;;6223926;23;20207;-83
2021/11/18 12:14:36;;;;;;;6.72;6.13;;;11.30;99.90;;;;;;6229394;23;20442;-83
2021/11/18 12:17:10;;;;;;;6.05;5.57;;;11.10;99.90;;;;;;6235745;23;20178;-83
2021/11/18 12:19:47;;;;;;;7.28;6.60;;;11.00;99.90;;;;;;6235368;23;20189;-83
2021/11/18 12:22:34;;;;;;;9.30;6.60;;;10.90;99.90;;;;;;6229026;23;20265;-83
2021/11/18 12:25:12;;;;;;;6.93;5.93;;;10.80;99.90;;;;;;6227105;23;20238;-83
2021/11/18 12:27:56;;;;;;;7.13;6.20;;;10.70;99.90;;;;;;6239629;23;20167;-82
2021/11/18 12:30:51;;;;;;;7.80;7.00;;;10.60;99.90;;;;;;6237572;23;20202;-82
2021/11/18 12:33:47;;;;;;;7.35;6.70;;;10.50;99.90;;;;;;6236837;23;20241;-81
2021/11/18 12:36:21;;;;;;;7.32;6.53;;;10.30;99.90;;;;;;6223926;23;20217;-83
2021/11/18 12:38:50;;;;;;;10.35;6.25;;;10.30;99.90;;;;;;6220877;23;20183;-82
2021/11/18 12:41:44;;;;;;;6.25;5.63;;;10.30;99.90;;;;;;6228195;23;20199;-82
2021/11/18 12:44:34;;;;;;;14.70;5.60;;;10.40;99.90;;;;;;6228330;23;20499;-82
2021/11/18 13:03:59;;;;;;;6.38;5.28;;;10.80;99.90;;;;;;5141349;27;20211;-83
2021/11/18 13:06:52;;;;;;;5.00;4.55;;;10.60;99.90;;;;;;5124526;28;20221;-82
2021/11/18 13:09:23;;;;;;;4.35;4.00;;;10.50;99.90;;;;;;5125179;27;20235;-83
2021/11/18 13:11:53;;;;;;;8.05;4.93;;;10.40;99.90;;;;;;5139978;27;20224;-82
2021/11/18 13:15:27;;;;;;;5.15;4.65;;;10.30;99.90;;;;;;5138515;27;20200;-83
2021/11/18 13:17:58;;;;;;;4.63;4.22;;;10.30;99.90;;;;;;5058316;28;20204;-84
2021/11/18 13:23:52;;;;;;;5.70;4.57;;;9.90;99.90;;;;;;5123771;28;20200;-83
2021/11/18 13:33:20;;;;;;;4.90;4.50;;;9.60;99.90;;;;;;5075717;28;20287;-83
2021/11/18 13:36:24;;;;;;;3.90;3.60;;;9.60;99.90;;;;;;5129412;28;20618;-84
2021/11/18 13:39:00;;;;;;;4.32;3.92;;;9.70;99.90;;;;;;5144931;27;20211;-83
2021/11/18 13:41:35;;;;;;;4.78;3.80;;;9.90;99.90;;;;;;5139239;27;20218;-84
2021/11/18 13:44:09;;;;;;;3.50;3.20;;;9.80;99.90;;;;;;5143704;27;20208;-83
2021/11/18 13:46:38;;;;;;;4.30;3.90;;;9.80;99.90;;;;;;5130870;27;20643;-83
2021/11/18 13:49:44;;;;;;;4.00;3.70;;;9.80;99.90;;;;;;5130954;27;20228;-84
2021/11/18 13:52:18;;;;;;;9.23;5.63;;;9.80;99.90;;;;;;5141678;27;20229;-83
2021/11/18 13:55:00;;;;;;;9.20;7.45;;;9.50;99.90;;;;;;5139839;27;20215;-83
2021/11/18 13:57:36;;;;;;;8.80;7.63;;;9.20;99.90;;;;;;5125235;27;20244;-83
2021/11/18 14:00:19;;;;;;;12.23;10.13;;;9.00;99.90;;;;;;5125071;27;20200;-84
2021/11/18 14:03:02;;;;;;;11.35;10.25;;;9.00;99.90;;;;;;5122364;28;20207;-84
2021/11/18 14:05:53;;;;;;;15.38;11.25;;;8.90;99.90;;;;;;5113329;28;20228;-84
2021/11/18 14:15:14;;;;;;;11.93;10.80;;;8.50;99.90;;;;;;5116678;28;20267;-84
2021/11/18 14:17:53;;;;;;;14.38;11.57;;;8.70;99.90;;;;;;5128876;28;20203;-84
2021/11/18 14:20:45;;;;;;;13.80;9.88;;;8.70;99.90;;;;;;5128543;27;20214;-84
2021/11/18 14:23:35;;;;;;;11.00;9.65;;;8.70;99.90;;;;;;5120152;28;20616;-84
2021/11/18 14:26:46;;;;;;;16.83;11.85;;;8.70;99.90;;;;;;5123831;28;20238;-84
2021/11/18 14:29:48;;;;;;;10.95;9.85;;;8.60;99.90;;;;;;5119957;28;20227;-82
2021/11/18 14:32:38;;;;;;;11.85;9.05;;;8.60;99.90;;;;;;5085241;28;20636;-83
2021/11/18 14:35:30;;;;;;;12.07;10.88;;;8.60;99.90;;;;;;5105762;28;20211;-82
2021/11/18 14:37:59;;;;;;;13.70;11.30;;;8.60;99.90;;;;;;5125925;28;20214;-84
2021/11/18 14:46:45;;;;;;;14.05;10.15;;;8.70;99.90;;;;;;5036682;28;20580;-83
2021/11/18 14:49:43;;;;;;;9.52;8.57;;;8.70;99.90;;;;;;5042869;28;20240;-83
2021/11/18 14:52:54;;;;;;;13.27;9.52;;;8.80;99.90;;;;;;5077486;28;20222;-82
2021/11/18 15:15:52;;;;;;;9.68;8.45;;;8.80;99.90;;;;;;4947406;28;20210;-83
2021/11/18 15:46:22;;;;;;;9.15;8.18;;;8.70;99.90;;;;;;4926713;29;20273;-82
2021/11/18 15:49:10;;;;;;;8.13;7.40;;;8.60;99.90;;;;;;4932600;28;20224;-83
2021/11/18 15:51:38;;;;;;;10.40;8.20;;;8.70;99.90;;;;;;4978149;28;20264;-84